Frank T. Stegbauer — WDE5944 — position and weather

sailwx.info

Track history (hours):
 
Tides and Currents Weather Stations Pressure Air Temp Water Temp Dewpoint Dewpoint Depression Visibility Wind Speed Wind Dir Waves Ship Positions

Frank T. Stegbauer

Owner: Southern Towing Company, Memphis, TN. More information available from US FCC via Universal Licensing System and Coast Guard Vessel Documentation Center.

Last reported at 2015-Jun-10 18:32 UTC. Time now 2015-Jun-30 12:41 UTC.
Position N 30°46' W 091°24'.
Warning: this ship's position is 19 days out of date.

Length 35 m; draft 8.6 m.

Type: Tug. MMSI: 367373640.

Date/timePositionNaut miles runAvg speedWind from/ knotsBaromVisibWave heightAir tempDewpointWater temp
2015-Jun-10 18:32N 30°46' W 091°24'0 0.0
2015-Jun-10 17:15N 30°46' W 091°24'0 0.0
2015-Jun-10 14:27N 30°46' W 091°23'2 2.0
2015-Jun-10 13:31N 30°45' W 091°22'4 4.2
2015-Jun-10 12:33N 30°41' W 091°21'4 3.8
2015-Jun-10 11:33N 30°38' W 091°17'4 3.9
2015-Jun-10 10:33N 30°34' W 091°19'4 4.0
2015-Jun-10 09:33N 30°32' W 091°15'2 1.6
2015-Jun-10 08:33N 30°31' W 091°14'4 4.4
2015-Jun-10 07:33N 30°27' W 091°12'4 4.3
2015-Jun-10 06:33N 30°23' W 091°13'0 0.0
2015-Jun-10 05:33N 30°23' W 091°13'3 2.5
2015-Jun-10 04:19N 30°21' W 091°11'2 2.1
2015-Jun-10 03:33N 30°19' W 091°11'8 0.2
2015-Jun-08 15:18N 30°13' W 091°05'2 0.7
2015-Jun-08 12:06N 30°12' W 091°07'0 0.0
2015-Jun-08 11:11N 30°12' W 091°07'0 0.0
2015-Jun-08 08:03N 30°12' W 091°07'0 0.0
2015-Jun-08 07:25N 30°12' W 091°07'0 0.0
2015-Jun-08 06:33N 30°12' W 091°07'3 2.2
2015-Jun-08 05:24N 30°15' W 091°07'7 8.2
2015-Jun-08 04:33N 30°19' W 091°13'2 2.0
2015-Jun-08 03:33N 30°21' W 091°14'9 9.3
2015-Jun-08 02:33N 30°30' W 091°12'3 3.4
2015-Jun-08 01:33N 30°32' W 091°15'8 7.8
2015-Jun-08 00:33N 30°39' W 091°19'  
Track history (hours):
 
Tides and Currents Weather Stations Pressure Air Temp Water Temp Dewpoint Dewpoint Depression Visibility Wind Speed Wind Dir Waves Ship Positions

Frank T. Stegbauer

Owner: Southern Towing Company, Memphis, TN. More information available from US FCC via Universal Licensing System and Coast Guard Vessel Documentation Center.

Last reported at 2015-Jun-10 18:32 UTC. Time now 2015-Jun-30 12:41 UTC.
Position N 30°46' W 091°24'.
Warning: this ship's position is 19 days out of date.

Length 35 m; draft 8.6 m.

Type: Tug. MMSI: 367373640.

Date/timePositionNaut miles runAvg speedWind from/ knotsBaromVisibWave heightAir tempDewpointWater temp
2015-Jun-10 18:32N 30°46' W 091°24'0 0.0
2015-Jun-10 17:15N 30°46' W 091°24'0 0.0
2015-Jun-10 14:27N 30°46' W 091°23'2 2.0
2015-Jun-10 13:31N 30°45' W 091°22'4 4.2
2015-Jun-10 12:33N 30°41' W 091°21'4 3.8
2015-Jun-10 11:33N 30°38' W 091°17'4 3.9
2015-Jun-10 10:33N 30°34' W 091°19'4 4.0
2015-Jun-10 09:33N 30°32' W 091°15'2 1.6
2015-Jun-10 08:33N 30°31' W 091°14'4 4.4
2015-Jun-10 07:33N 30°27' W 091°12'4 4.3
2015-Jun-10 06:33N 30°23' W 091°13'0 0.0
2015-Jun-10 05:33N 30°23' W 091°13'3 2.5
2015-Jun-10 04:19N 30°21' W 091°11'2 2.1
2015-Jun-10 03:33N 30°19' W 091°11'8 0.2
2015-Jun-08 15:18N 30°13' W 091°05'2 0.7
2015-Jun-08 12:06N 30°12' W 091°07'0 0.0
2015-Jun-08 11:11N 30°12' W 091°07'0 0.0
2015-Jun-08 08:03N 30°12' W 091°07'0 0.0
2015-Jun-08 07:25N 30°12' W 091°07'0 0.0
2015-Jun-08 06:33N 30°12' W 091°07'3 2.2
2015-Jun-08 05:24N 30°15' W 091°07'7 8.2
2015-Jun-08 04:33N 30°19' W 091°13'2 2.0
2015-Jun-08 03:33N 30°21' W 091°14'9 9.3
2015-Jun-08 02:33N 30°30' W 091°12'3 3.4
2015-Jun-08 01:33N 30°32' W 091°15'8 7.8
2015-Jun-08 00:33N 30°39' W 091°19'  

Dump ship's entire track history